Antimony, Utah
Current Conditions -  °F | °C
As of 4:53 PM on Wednesday 26 Nov 2014 (Local Time) from KBCE Reporting Station
Clear Clear  
Wind Chill: 44°   Ceiling: Unl
Heat Index: 47°   Visibility: 10mi
Dew Point: 19°   Wind: 6mph
Humidity: 33%   Direction: 20°NNE
Pressure: 30.47"   Gusts: NA
Location:  38.12°N, 112°W
Report Text: KBCE 262353Z AUTO 02005KT 10SM CLR 08/M07 A3047 RMK AO2 SLP289 T00831072 10122 21006 53003
Loading
Personal Weather Stations






























Interactive Weather Map New forecast layout! Learn more

10-Day Weather Forecast

Advertisements
Track Severe Weather on mobile